sensor_id;sensor_type;location;lat;lon;timestamp;P1;durP1;ratioP1;P2;durP2;ratioP2
69636;SDS011;56860;51.144;16.954;2023-11-19T00:00:54;17.6;;;32.4;;
69636;SDS011;56860;51.144;16.954;2023-11-19T00:01:55;18.2;;;29.2;;
69636;SDS011;56860;51.144;16.954;2023-11-19T00:02:55;17.6;;;27.6;;
69636;SDS011;56860;51.144;16.954;2023-11-19T00:03:55;17.6;;;27.6;;
69636;SDS011;56860;51.144;16.954;2023-11-19T00:04:55;17.2;;;29.2;;
69636;SDS011;56860;51.144;16.954;2023-11-19T00:05:55;16.8;;;28.2;;
69636;SDS011;56860;51.144;16.954;2023-11-19T00:06:55;16.8;;;28.2;;
69636;SDS011;56860;51.144;16.954;2023-11-19T00:07:55;17.8;;;30.7;;
69636;SDS011;56860;51.144;16.954;2023-11-19T00:08:55;17.4;;;29.9;;
69636;SDS011;56860;51.144;16.954;2023-11-19T00:09:55;17.4;;;29.9;;
69636;SDS011;56860;51.144;16.954;2023-11-19T00:10:55;17.8;;;29.5;;
69636;SDS011;56860;51.144;16.954;2023-11-19T00:11:55;17.9;;;29.6;;
69636;SDS011;56860;51.144;16.954;2023-11-19T00:12:55;17.9;;;29.6;;
69636;SDS011;56860;51.144;16.954;2023-11-19T00:13:55;13.6;;;17.4;;
69636;SDS011;56860;51.144;16.954;2023-11-19T00:14:55;16.5;;;27.0;;
69636;SDS011;56860;51.144;16.954;2023-11-19T00:15:55;16.5;;;27.0;;
69636;SDS011;56860;51.144;16.954;2023-11-19T00:16:55;14.3;;;22.1;;
69636;SDS011;56860;51.144;16.954;2023-11-19T00:17:55;17.4;;;28.1;;
69636;SDS011;56860;51.144;16.954;2023-11-19T00:18:55;17.4;;;28.1;;
69636;SDS011;56860;51.144;16.954;2023-11-19T00:19:55;17.4;;;28.1;;
69636;SDS011;56860;51.144;16.954;2023-11-19T00:20:55;16.8;;;31.2;;
69636;SDS011;56860;51.144;16.954;2023-11-19T00:21:56;16.8;;;31.2;;
69636;SDS011;56860;51.144;16.954;2023-11-19T00:22:55;16.8;;;31.2;;
69636;SDS011;56860;51.144;16.954;2023-11-19T00:23:55;16.6;;;28.5;;
69636;SDS011;56860;51.144;16.954;2023-11-19T00:24:56;16.6;;;28.5;;
69636;SDS011;56860;51.144;16.954;2023-11-19T00:25:56;16.6;;;28.5;;
69636;SDS011;56860;51.144;16.954;2023-11-19T00:26:56;17.1;;;28.9;;
69636;SDS011;56860;51.144;16.954;2023-11-19T00:27:56;17.1;;;28.9;;
69636;SDS011;56860;51.144;16.954;2023-11-19T00:28:56;17.1;;;28.9;;
69636;SDS011;56860;51.144;16.954;2023-11-19T00:29:56;17.0;;;29.8;;
69636;SDS011;56860;51.144;16.954;2023-11-19T00:30:56;17.0;;;29.8;;
69636;SDS011;56860;51.144;16.954;2023-11-19T00:31:56;17.0;;;29.8;;
69636;SDS011;56860;51.144;16.954;2023-11-19T00:32:56;16.9;;;27.5;;
69636;SDS011;56860;51.144;16.954;2023-11-19T00:33:56;16.9;;;27.5;;
69636;SDS011;56860;51.144;16.954;2023-11-19T00:34:56;16.9;;;27.5;;
69636;SDS011;56860;51.144;16.954;2023-11-19T00:35:56;17.3;;;30.2;;
69636;SDS011;56860;51.144;16.954;2023-11-19T00:36:56;17.3;;;30.2;;
69636;SDS011;56860;51.144;16.954;2023-11-19T00:37:56;17.3;;;30.2;;
69636;SDS011;56860;51.144;16.954;2023-11-19T00:38:56;17.1;;;29.3;;
69636;SDS011;56860;51.144;16.954;2023-11-19T00:39:56;17.1;;;29.3;;
69636;SDS011;56860;51.144;16.954;2023-11-19T00:40:56;17.1;;;29.3;;
69636;SDS011;56860;51.144;16.954;2023-11-19T00:41:56;18.1;;;29.9;;
69636;SDS011;56860;51.144;16.954;2023-11-19T00:42:56;18.1;;;29.9;;
69636;SDS011;56860;51.144;16.954;2023-11-19T00:43:56;18.1;;;29.9;;
69636;SDS011;56860;51.144;16.954;2023-11-19T00:44:56;17.4;;;27.5;;
69636;SDS011;56860;51.144;16.954;2023-11-19T00:45:56;17.4;;;27.5;;
69636;SDS011;56860;51.144;16.954;2023-11-19T00:46:56;17.4;;;27.5;;
69636;SDS011;56860;51.144;16.954;2023-11-19T00:47:56;16.7;;;25.9;;
69636;SDS011;56860;51.144;16.954;2023-11-19T00:48:56;16.7;;;25.9;;
69636;SDS011;56860;51.144;16.954;2023-11-19T00:49:56;16.7;;;25.9;;
69636;SDS011;56860;51.144;16.954;2023-11-19T00:50:56;16.8;;;30.2;;
69636;SDS011;56860;51.144;16.954;2023-11-19T00:51:56;16.8;;;30.2;;
69636;SDS011;56860;51.144;16.954;2023-11-19T00:52:56;16.8;;;30.2;;
69636;SDS011;56860;51.144;16.954;2023-11-19T00:53:56;16.4;;;26.4;;
69636;SDS011;56860;51.144;16.954;2023-11-19T00:54:56;16.4;;;26.4;;
69636;SDS011;56860;51.144;16.954;2023-11-19T00:55:56;16.4;;;26.4;;
69636;SDS011;56860;51.144;16.954;2023-11-19T00:56:56;16.4;;;25.9;;
69636;SDS011;56860;51.144;16.954;2023-11-19T00:57:56;16.4;;;25.9;;
69636;SDS011;56860;51.144;16.954;2023-11-19T00:58:56;16.4;;;25.9;;
69636;SDS011;56860;51.144;16.954;2023-11-19T00:59:56;18.2;;;30.7;;
69636;SDS011;56860;51.144;16.954;2023-11-19T01:00:56;18.2;;;30.7;;
69636;SDS011;56860;51.144;16.954;2023-11-19T01:01:56;18.2;;;30.7;;
69636;SDS011;56860;51.144;16.954;2023-11-19T01:02:56;17.7;;;28.2;;
69636;SDS011;56860;51.144;16.954;2023-11-19T01:03:57;17.7;;;28.2;;
69636;SDS011;56860;51.144;16.954;2023-11-19T01:04:56;17.7;;;28.2;;
69636;SDS011;56860;51.144;16.954;2023-11-19T01:05:56;18.3;;;28.5;;
69636;SDS011;56860;51.144;16.954;2023-11-19T01:06:57;18.3;;;28.5;;
69636;SDS011;56860;51.144;16.954;2023-11-19T01:07:56;18.3;;;28.5;;
69636;SDS011;56860;51.144;16.954;2023-11-19T01:08:56;18.0;;;29.9;;
69636;SDS011;56860;51.144;16.954;2023-11-19T01:09:56;18.0;;;29.9;;
69636;SDS011;56860;51.144;16.954;2023-11-19T01:10:56;18.0;;;29.9;;
69636;SDS011;56860;51.144;16.954;2023-11-19T01:11:56;18.7;;;33.7;;
69636;SDS011;56860;51.144;16.954;2023-11-19T01:12:56;18.7;;;33.7;;
69636;SDS011;56860;51.144;16.954;2023-11-19T01:13:56;18.7;;;33.7;;
69636;SDS011;56860;51.144;16.954;2023-11-19T01:14:56;18.3;;;32.0;;
69636;SDS011;56860;51.144;16.954;2023-11-19T01:15:56;18.3;;;32.0;;
69636;SDS011;56860;51.144;16.954;2023-11-19T01:16:56;18.3;;;32.0;;
69636;SDS011;56860;51.144;16.954;2023-11-19T01:17:56;18.0;;;31.9;;
69636;SDS011;56860;51.144;16.954;2023-11-19T01:18:56;18.0;;;31.9;;
69636;SDS011;56860;51.144;16.954;2023-11-19T01:19:56;18.0;;;31.9;;
69636;SDS011;56860;51.144;16.954;2023-11-19T01:20:57;18.1;;;30.2;;
69636;SDS011;56860;51.144;16.954;2023-11-19T01:21:57;18.1;;;30.2;;
69636;SDS011;56860;51.144;16.954;2023-11-19T01:22:57;18.1;;;30.2;;
69636;SDS011;56860;51.144;16.954;2023-11-19T01:23:57;17.9;;;30.7;;
69636;SDS011;56860;51.144;16.954;2023-11-19T01:24:56;17.9;;;30.7;;
69636;SDS011;56860;51.144;16.954;2023-11-19T01:25:57;17.9;;;30.7;;
69636;SDS011;56860;51.144;16.954;2023-11-19T01:26:57;18.5;;;29.2;;
69636;SDS011;56860;51.144;16.954;2023-11-19T01:27:57;18.5;;;29.2;;
69636;SDS011;56860;51.144;16.954;2023-11-19T01:28:57;18.5;;;29.2;;
69636;SDS011;56860;51.144;16.954;2023-11-19T01:29:57;17.6;;;29.1;;
69636;SDS011;56860;51.144;16.954;2023-11-19T01:30:57;17.6;;;29.1;;
69636;SDS011;56860;51.144;16.954;2023-11-19T01:31:57;17.6;;;29.1;;
69636;SDS011;56860;51.144;16.954;2023-11-19T01:32:57;17.9;;;28.5;;
69636;SDS011;56860;51.144;16.954;2023-11-19T01:33:57;17.9;;;28.5;;
69636;SDS011;56860;51.144;16.954;2023-11-19T01:34:57;17.9;;;28.5;;
69636;SDS011;56860;51.144;16.954;2023-11-19T01:35:57;16.4;;;26.8;;
69636;SDS011;56860;51.144;16.954;2023-11-19T01:36:57;16.4;;;26.8;;
69636;SDS011;56860;51.144;16.954;2023-11-19T01:37:57;16.4;;;26.8;;
69636;SDS011;56860;51.144;16.954;2023-11-19T01:38:57;17.6;;;28.6;;
69636;SDS011;56860;51.144;16.954;2023-11-19T01:39:57;17.6;;;28.6;;
69636;SDS011;56860;51.144;16.954;2023-11-19T01:40:57;17.6;;;28.6;;
69636;SDS011;56860;51.144;16.954;2023-11-19T01:41:57;17.0;;;27.5;;
69636;SDS011;56860;51.144;16.954;2023-11-19T01:42:57;17.0;;;27.5;;
69636;SDS011;56860;51.144;16.954;2023-11-19T01:43:57;17.0;;;27.5;;
69636;SDS011;56860;51.144;16.954;2023-11-19T01:44:58;16.4;;;26.5;;
69636;SDS011;56860;51.144;16.954;2023-11-19T01:45:57;16.4;;;26.5;;
69636;SDS011;56860;51.144;16.954;2023-11-19T01:46:57;16.4;;;26.5;;
69636;SDS011;56860;51.144;16.954;2023-11-19T01:47:57;17.3;;;28.2;;
69636;SDS011;56860;51.144;16.954;2023-11-19T01:48:57;17.3;;;28.2;;
69636;SDS011;56860;51.144;16.954;2023-11-19T01:49:57;17.3;;;28.2;;
69636;SDS011;56860;51.144;16.954;2023-11-19T01:50:57;18.0;;;30.1;;
69636;SDS011;56860;51.144;16.954;2023-11-19T01:51:57;17.8;;;30.9;;
69636;SDS011;56860;51.144;16.954;2023-11-19T01:52:57;17.8;;;30.9;;
69636;SDS011;56860;51.144;16.954;2023-11-19T01:53:57;17.4;;;29.4;;
69636;SDS011;56860;51.144;16.954;2023-11-19T01:54:57;17.1;;;27.8;;
69636;SDS011;56860;51.144;16.954;2023-11-19T01:55:57;17.1;;;27.8;;
69636;SDS011;56860;51.144;16.954;2023-11-19T01:56:57;17.5;;;28.2;;
69636;SDS011;56860;51.144;16.954;2023-11-19T01:57:58;17.0;;;27.2;;
69636;SDS011;56860;51.144;16.954;2023-11-19T01:58:57;17.0;;;27.2;;
69636;SDS011;56860;51.144;16.954;2023-11-19T01:59:57;17.6;;;28.9;;
69636;SDS011;56860;51.144;16.954;2023-11-19T02:00:57;17.2;;;28.5;;
69636;SDS011;56860;51.144;16.954;2023-11-19T02:01:57;17.2;;;28.5;;
69636;SDS011;56860;51.144;16.954;2023-11-19T02:02:58;16.9;;;28.6;;
69636;SDS011;56860;51.144;16.954;2023-11-19T02:03:57;16.3;;;28.0;;
69636;SDS011;56860;51.144;16.954;2023-11-19T02:04:57;16.3;;;28.0;;
69636;SDS011;56860;51.144;16.954;2023-11-19T02:05:57;17.5;;;30.8;;
69636;SDS011;56860;51.144;16.954;2023-11-19T02:06:58;16.8;;;28.9;;
69636;SDS011;56860;51.144;16.954;2023-11-19T02:07:58;16.8;;;28.9;;
69636;SDS011;56860;51.144;16.954;2023-11-19T02:08:58;15.2;;;23.4;;
69636;SDS011;56860;51.144;16.954;2023-11-19T02:09:57;16.5;;;26.6;;
69636;SDS011;56860;51.144;16.954;2023-11-19T02:10:58;16.5;;;26.6;;
69636;SDS011;56860;51.144;16.954;2023-11-19T02:11:58;15.5;;;26.6;;
69636;SDS011;56860;51.144;16.954;2023-11-19T02:12:58;16.8;;;27.4;;
69636;SDS011;56860;51.144;16.954;2023-11-19T02:13:58;16.8;;;27.4;;
69636;SDS011;56860;51.144;16.954;2023-11-19T02:14:58;16.8;;;27.4;;
69636;SDS011;56860;51.144;16.954;2023-11-19T02:15:58;16.5;;;28.2;;
69636;SDS011;56860;51.144;16.954;2023-11-19T02:16:58;16.5;;;28.2;;
69636;SDS011;56860;51.144;16.954;2023-11-19T02:18:13;16.5;;;28.2;;
69636;SDS011;56860;51.144;16.954;2023-11-19T02:18:58;16.9;;;28.0;;
69636;SDS011;56860;51.144;16.954;2023-11-19T02:19:58;16.9;;;28.0;;
69636;SDS011;56860;51.144;16.954;2023-11-19T02:20:58;16.9;;;28.0;;
69636;SDS011;56860;51.144;16.954;2023-11-19T02:21:58;16.2;;;28.3;;
69636;SDS011;56860;51.144;16.954;2023-11-19T02:22:58;16.2;;;28.3;;
69636;SDS011;56860;51.144;16.954;2023-11-19T02:23:58;16.2;;;28.3;;
69636;SDS011;56860;51.144;16.954;2023-11-19T02:24:59;16.5;;;26.9;;
69636;SDS011;56860;51.144;16.954;2023-11-19T02:26:02;16.5;;;26.9;;
69636;SDS011;56860;51.144;16.954;2023-11-19T02:26:59;16.5;;;26.9;;
69636;SDS011;56860;51.144;16.954;2023-11-19T02:27:59;16.7;;;28.3;;
69636;SDS011;56860;51.144;16.954;2023-11-19T02:28:59;16.7;;;28.3;;
69636;SDS011;56860;51.144;16.954;2023-11-19T02:29:58;16.7;;;28.3;;
69636;SDS011;56860;51.144;16.954;2023-11-19T02:30:58;15.9;;;24.1;;
69636;SDS011;56860;51.144;16.954;2023-11-19T02:31:58;15.9;;;24.1;;
69636;SDS011;56860;51.144;16.954;2023-11-19T02:32:59;15.9;;;24.1;;
69636;SDS011;56860;51.144;16.954;2023-11-19T02:35:58;16.2;;;27.7;;
69636;SDS011;56860;51.144;16.954;2023-11-19T02:36:59;16.8;;;28.6;;
69636;SDS011;56860;51.144;16.954;2023-11-19T02:37:59;16.8;;;28.6;;
69636;SDS011;56860;51.144;16.954;2023-11-19T02:38:58;16.8;;;28.6;;
69636;SDS011;56860;51.144;16.954;2023-11-19T02:39:58;16.9;;;28.8;;
69636;SDS011;56860;51.144;16.954;2023-11-19T02:40:59;16.9;;;28.8;;
69636;SDS011;56860;51.144;16.954;2023-11-19T02:41:58;16.9;;;28.8;;
69636;SDS011;56860;51.144;16.954;2023-11-19T02:42:58;16.2;;;26.5;;
69636;SDS011;56860;51.144;16.954;2023-11-19T02:43:58;16.2;;;26.5;;
69636;SDS011;56860;51.144;16.954;2023-11-19T02:44:58;16.2;;;26.5;;
69636;SDS011;56860;51.144;16.954;2023-11-19T02:46:00;16.5;;;26.5;;
69636;SDS011;56860;51.144;16.954;2023-11-19T02:46:58;16.5;;;26.5;;
69636;SDS011;56860;51.144;16.954;2023-11-19T02:47:58;16.5;;;26.5;;
69636;SDS011;56860;51.144;16.954;2023-11-19T02:48:59;17.0;;;29.0;;
69636;SDS011;56860;51.144;16.954;2023-11-19T02:49:58;17.0;;;29.0;;
69636;SDS011;56860;51.144;16.954;2023-11-19T02:50:58;17.0;;;29.0;;
69636;SDS011;56860;51.144;16.954;2023-11-19T02:51:58;17.2;;;28.0;;
69636;SDS011;56860;51.144;16.954;2023-11-19T02:52:58;17.2;;;28.0;;
69636;SDS011;56860;51.144;16.954;2023-11-19T02:53:58;17.2;;;28.0;;
69636;SDS011;56860;51.144;16.954;2023-11-19T02:54:59;16.5;;;27.0;;
69636;SDS011;56860;51.144;16.954;2023-11-19T02:55:58;16.5;;;27.0;;
69636;SDS011;56860;51.144;16.954;2023-11-19T02:56:58;16.5;;;27.0;;
69636;SDS011;56860;51.144;16.954;2023-11-19T02:57:58;17.0;;;27.8;;
69636;SDS011;56860;51.144;16.954;2023-11-19T02:58:58;17.0;;;27.8;;
69636;SDS011;56860;51.144;16.954;2023-11-19T02:59:58;17.0;;;27.8;;
69636;SDS011;56860;51.144;16.954;2023-11-19T03:00:59;17.0;;;24.8;;
69636;SDS011;56860;51.144;16.954;2023-11-19T03:01:58;17.0;;;24.8;;
69636;SDS011;56860;51.144;16.954;2023-11-19T03:02:58;17.0;;;24.8;;
69636;SDS011;56860;51.144;16.954;2023-11-19T03:03:59;17.4;;;29.2;;
69636;SDS011;56860;51.144;16.954;2023-11-19T03:04:58;16.7;;;27.5;;
69636;SDS011;56860;51.144;16.954;2023-11-19T03:06:01;16.7;;;27.5;;
69636;SDS011;56860;51.144;16.954;2023-11-19T03:06:58;17.6;;;30.9;;
69636;SDS011;56860;51.144;16.954;2023-11-19T03:07:59;17.5;;;30.4;;
69636;SDS011;56860;51.144;16.954;2023-11-19T03:08:58;17.5;;;30.4;;
69636;SDS011;56860;51.144;16.954;2023-11-19T03:09:58;17.4;;;30.3;;
69636;SDS011;56860;51.144;16.954;2023-11-19T03:10:58;17.1;;;29.1;;
69636;SDS011;56860;51.144;16.954;2023-11-19T03:11:59;17.1;;;29.1;;
69636;SDS011;56860;51.144;16.954;2023-11-19T03:12:58;17.7;;;29.3;;
69636;SDS011;56860;51.144;16.954;2023-11-19T03:13:58;17.5;;;28.7;;
69636;SDS011;56860;51.144;16.954;2023-11-19T03:14:58;17.5;;;28.7;;
69636;SDS011;56860;51.144;16.954;2023-11-19T03:15:58;16.6;;;24.1;;
69636;SDS011;56860;51.144;16.954;2023-11-19T03:16:58;16.4;;;23.3;;
69636;SDS011;56860;51.144;16.954;2023-11-19T03:17:59;16.4;;;23.3;;
69636;SDS011;56860;51.144;16.954;2023-11-19T03:18:58;17.5;;;29.0;;
69636;SDS011;56860;51.144;16.954;2023-11-19T03:19:58;17.4;;;29.5;;
69636;SDS011;56860;51.144;16.954;2023-11-19T03:20:58;17.4;;;29.5;;
69636;SDS011;56860;51.144;16.954;2023-11-19T03:21:58;17.4;;;29.5;;
69636;SDS011;56860;51.144;16.954;2023-11-19T03:22:58;17.4;;;28.0;;
69636;SDS011;56860;51.144;16.954;2023-11-19T03:23:59;17.4;;;28.0;;
69636;SDS011;56860;51.144;16.954;2023-11-19T03:24:59;17.4;;;28.0;;
69636;SDS011;56860;51.144;16.954;2023-11-19T03:25:58;17.1;;;29.1;;
69636;SDS011;56860;51.144;16.954;2023-11-19T03:26:58;17.1;;;29.1;;
69636;SDS011;56860;51.144;16.954;2023-11-19T03:27:59;17.1;;;29.1;;
69636;SDS011;56860;51.144;16.954;2023-11-19T03:28:58;17.5;;;27.9;;
69636;SDS011;56860;51.144;16.954;2023-11-19T03:29:59;17.5;;;27.9;;
69636;SDS011;56860;51.144;16.954;2023-11-19T03:30:58;17.5;;;27.9;;
69636;SDS011;56860;51.144;16.954;2023-11-19T03:31:58;18.2;;;29.6;;
69636;SDS011;56860;51.144;16.954;2023-11-19T03:32:58;18.2;;;29.6;;
69636;SDS011;56860;51.144;16.954;2023-11-19T03:33:58;18.2;;;29.6;;
69636;SDS011;56860;51.144;16.954;2023-11-19T03:34:58;17.4;;;27.7;;
69636;SDS011;56860;51.144;16.954;2023-11-19T03:35:59;17.4;;;27.7;;
69636;SDS011;56860;51.144;16.954;2023-11-19T03:36:58;17.4;;;27.7;;
69636;SDS011;56860;51.144;16.954;2023-11-19T03:37:58;17.4;;;30.4;;
69636;SDS011;56860;51.144;16.954;2023-11-19T03:38:58;17.4;;;30.4;;
69636;SDS011;56860;51.144;16.954;2023-11-19T03:39:59;17.4;;;30.4;;
69636;SDS011;56860;51.144;16.954;2023-11-19T03:40:58;17.6;;;28.3;;
69636;SDS011;56860;51.144;16.954;2023-11-19T03:41:59;17.6;;;28.3;;
69636;SDS011;56860;51.144;16.954;2023-11-19T03:42:58;17.6;;;28.3;;
69636;SDS011;56860;51.144;16.954;2023-11-19T03:43:58;17.4;;;28.4;;
69636;SDS011;56860;51.144;16.954;2023-11-19T03:44:58;17.4;;;28.4;;
69636;SDS011;56860;51.144;16.954;2023-11-19T03:45:58;17.4;;;28.4;;
69636;SDS011;56860;51.144;16.954;2023-11-19T03:46:58;17.8;;;28.8;;
69636;SDS011;56860;51.144;16.954;2023-11-19T03:47:59;17.8;;;28.8;;
69636;SDS011;56860;51.144;16.954;2023-11-19T03:48:58;17.8;;;28.8;;
69636;SDS011;56860;51.144;16.954;2023-11-19T03:49:58;17.8;;;28.8;;
69636;SDS011;56860;51.144;16.954;2023-11-19T03:50:58;17.8;;;28.8;;
69636;SDS011;56860;51.144;16.954;2023-11-19T03:51:58;17.8;;;28.8;;
69636;SDS011;56860;51.144;16.954;2023-11-19T03:52:58;17.8;;;34.7;;
69636;SDS011;56860;51.144;16.954;2023-11-19T03:53:59;17.8;;;34.7;;
69636;SDS011;56860;51.144;16.954;2023-11-19T03:54:58;17.8;;;34.7;;
69636;SDS011;56860;51.144;16.954;2023-11-19T03:55:58;17.5;;;31.3;;
69636;SDS011;56860;51.144;16.954;2023-11-19T03:56:58;17.5;;;31.3;;
69636;SDS011;56860;51.144;16.954;2023-11-19T03:57:58;17.5;;;31.3;;
69636;SDS011;56860;51.144;16.954;2023-11-19T03:58:58;16.5;;;28.5;;
69636;SDS011;56860;51.144;16.954;2023-11-19T03:59:59;16.5;;;28.5;;
69636;SDS011;56860;51.144;16.954;2023-11-19T04:00:58;16.5;;;28.5;;
69636;SDS011;56860;51.144;16.954;2023-11-19T04:01:58;16.5;;;28.9;;
69636;SDS011;56860;51.144;16.954;2023-11-19T04:02:58;16.5;;;28.9;;
69636;SDS011;56860;51.144;16.954;2023-11-19T04:03:58;16.5;;;28.9;;
69636;SDS011;56860;51.144;16.954;2023-11-19T04:04:58;16.2;;;29.8;;
69636;SDS011;56860;51.144;16.954;2023-11-19T04:05:59;16.2;;;29.8;;
69636;SDS011;56860;51.144;16.954;2023-11-19T04:06:59;16.2;;;29.8;;
69636;SDS011;56860;51.144;16.954;2023-11-19T04:07:58;17.3;;;30.8;;
69636;SDS011;56860;51.144;16.954;2023-11-19T04:08:58;17.3;;;30.8;;
69636;SDS011;56860;51.144;16.954;2023-11-19T04:09:58;17.3;;;30.8;;
69636;SDS011;56860;51.144;16.954;2023-11-19T04:10:59;17.2;;;28.9;;
69636;SDS011;56860;51.144;16.954;2023-11-19T04:11:59;17.2;;;28.9;;
69636;SDS011;56860;51.144;16.954;2023-11-19T04:12:58;17.2;;;28.9;;
69636;SDS011;56860;51.144;16.954;2023-11-19T04:13:58;16.3;;;28.9;;
69636;SDS011;56860;51.144;16.954;2023-11-19T04:14:58;16.3;;;28.9;;
69636;SDS011;56860;51.144;16.954;2023-11-19T04:15:59;16.3;;;28.9;;
69636;SDS011;56860;51.144;16.954;2023-11-19T04:16:58;16.8;;;29.4;;
69636;SDS011;56860;51.144;16.954;2023-11-19T04:17:59;16.8;;;29.4;;
69636;SDS011;56860;51.144;16.954;2023-11-19T04:18:58;16.8;;;29.4;;
69636;SDS011;56860;51.144;16.954;2023-11-19T04:19:58;16.0;;;27.3;;
69636;SDS011;56860;51.144;16.954;2023-11-19T04:20:58;16.0;;;27.3;;
69636;SDS011;56860;51.144;16.954;2023-11-19T04:21:58;16.0;;;27.3;;
69636;SDS011;56860;51.144;16.954;2023-11-19T04:22:58;16.6;;;27.9;;
69636;SDS011;56860;51.144;16.954;2023-11-19T04:23:59;16.6;;;27.9;;
69636;SDS011;56860;51.144;16.954;2023-11-19T04:24:58;16.6;;;27.9;;
69636;SDS011;56860;51.144;16.954;2023-11-19T04:26:01;16.1;;;27.3;;
69636;SDS011;56860;51.144;16.954;2023-11-19T04:26:58;16.1;;;27.3;;
69636;SDS011;56860;51.144;16.954;2023-11-19T04:27:58;16.1;;;27.3;;
69636;SDS011;56860;51.144;16.954;2023-11-19T04:28:58;16.5;;;28.8;;
69636;SDS011;56860;51.144;16.954;2023-11-19T04:29:59;16.5;;;28.8;;
69636;SDS011;56860;51.144;16.954;2023-11-19T04:30:58;16.5;;;28.8;;
69636;SDS011;56860;51.144;16.954;2023-11-19T04:31:58;15.6;;;27.0;;
69636;SDS011;56860;51.144;16.954;2023-11-19T04:32:58;15.6;;;27.0;;
69636;SDS011;56860;51.144;16.954;2023-11-19T04:33:58;15.6;;;27.0;;
69636;SDS011;56860;51.144;16.954;2023-11-19T04:34:58;15.9;;;25.6;;
69636;SDS011;56860;51.144;16.954;2023-11-19T04:35:59;15.9;;;25.6;;
69636;SDS011;56860;51.144;16.954;2023-11-19T04:36:58;15.9;;;25.6;;
69636;SDS011;56860;51.144;16.954;2023-11-19T04:37:58;15.9;;;26.3;;
69636;SDS011;56860;51.144;16.954;2023-11-19T04:38:58;15.9;;;26.3;;
69636;SDS011;56860;51.144;16.954;2023-11-19T04:39:58;15.9;;;26.3;;
69636;SDS011;56860;51.144;16.954;2023-11-19T04:40:58;15.9;;;27.6;;
69636;SDS011;56860;51.144;16.954;2023-11-19T04:41:59;15.9;;;27.6;;
69636;SDS011;56860;51.144;16.954;2023-11-19T04:42:58;15.9;;;27.6;;
69636;SDS011;56860;51.144;16.954;2023-11-19T04:43:58;15.4;;;26.0;;
69636;SDS011;56860;51.144;16.954;2023-11-19T04:44:58;15.4;;;26.0;;
69636;SDS011;56860;51.144;16.954;2023-11-19T04:45:58;15.4;;;26.0;;
69636;SDS011;56860;51.144;16.954;2023-11-19T04:46:58;15.9;;;25.1;;
69636;SDS011;56860;51.144;16.954;2023-11-19T04:47:59;15.9;;;25.1;;
69636;SDS011;56860;51.144;16.954;2023-11-19T04:48:58;15.9;;;25.1;;
69636;SDS011;56860;51.144;16.954;2023-11-19T04:49:58;15.4;;;26.3;;
69636;SDS011;56860;51.144;16.954;2023-11-19T04:50:58;15.4;;;26.3;;
69636;SDS011;56860;51.144;16.954;2023-11-19T04:51:58;15.4;;;26.3;;
69636;SDS011;56860;51.144;16.954;2023-11-19T04:52:58;15.8;;;26.2;;
69636;SDS011;56860;51.144;16.954;2023-11-19T04:53:59;15.8;;;26.2;;
69636;SDS011;56860;51.144;16.954;2023-11-19T04:54:58;15.8;;;26.2;;
69636;SDS011;56860;51.144;16.954;2023-11-19T04:56:00;16.1;;;25.7;;
69636;SDS011;56860;51.144;16.954;2023-11-19T04:56:58;16.1;;;25.7;;
69636;SDS011;56860;51.144;16.954;2023-11-19T04:57:58;16.1;;;25.7;;
69636;SDS011;56860;51.144;16.954;2023-11-19T04:58:59;15.1;;;27.2;;
69636;SDS011;56860;51.144;16.954;2023-11-19T04:59:59;15.1;;;27.2;;
69636;SDS011;56860;51.144;16.954;2023-11-19T05:00:59;15.1;;;27.2;;
69636;SDS011;56860;51.144;16.954;2023-11-19T05:01:58;14.7;;;24.2;;
69636;SDS011;56860;51.144;16.954;2023-11-19T05:02:58;14.7;;;24.2;;
69636;SDS011;56860;51.144;16.954;2023-11-19T05:03:58;14.7;;;24.2;;
69636;SDS011;56860;51.144;16.954;2023-11-19T05:04:58;15.4;;;26.1;;
69636;SDS011;56860;51.144;16.954;2023-11-19T05:05:59;15.4;;;26.1;;
69636;SDS011;56860;51.144;16.954;2023-11-19T05:06:59;15.4;;;26.1;;
69636;SDS011;56860;51.144;16.954;2023-11-19T05:07:59;14.8;;;25.5;;
69636;SDS011;56860;51.144;16.954;2023-11-19T05:08:59;14.8;;;25.5;;
69636;SDS011;56860;51.144;16.954;2023-11-19T05:09:58;14.8;;;25.5;;
69636;SDS011;56860;51.144;16.954;2023-11-19T05:10:58;15.7;;;27.6;;
69636;SDS011;56860;51.144;16.954;2023-11-19T05:11:58;15.7;;;27.6;;
69636;SDS011;56860;51.144;16.954;2023-11-19T05:12:59;15.7;;;27.6;;
69636;SDS011;56860;51.144;16.954;2023-11-19T05:13:59;14.4;;;23.8;;
69636;SDS011;56860;51.144;16.954;2023-11-19T05:14:58;14.4;;;23.8;;
69636;SDS011;56860;51.144;16.954;2023-11-19T05:15:58;14.4;;;23.8;;
69636;SDS011;56860;51.144;16.954;2023-11-19T05:16:59;14.2;;;22.7;;
69636;SDS011;56860;51.144;16.954;2023-11-19T05:17:59;14.2;;;22.7;;
69636;SDS011;56860;51.144;16.954;2023-11-19T05:18:59;14.2;;;22.7;;
69636;SDS011;56860;51.144;16.954;2023-11-19T05:19:59;14.1;;;21.3;;
69636;SDS011;56860;51.144;16.954;2023-11-19T05:20:59;13.9;;;21.6;;
69636;SDS011;56860;51.144;16.954;2023-11-19T05:21:58;13.9;;;21.6;;
69636;SDS011;56860;51.144;16.954;2023-11-19T05:22:59;13.9;;;23.3;;
69636;SDS011;56860;51.144;16.954;2023-11-19T05:23:59;13.6;;;23.0;;
69636;SDS011;56860;51.144;16.954;2023-11-19T05:24:59;13.6;;;23.0;;
69636;SDS011;56860;51.144;16.954;2023-11-19T05:25:59;13.4;;;22.9;;
69636;SDS011;56860;51.144;16.954;2023-11-19T05:26:59;13.1;;;22.2;;
69636;SDS011;56860;51.144;16.954;2023-11-19T05:27:59;13.1;;;22.2;;
69636;SDS011;56860;51.144;16.954;2023-11-19T05:28:59;14.1;;;23.6;;
69636;SDS011;56860;51.144;16.954;2023-11-19T05:29:59;13.9;;;23.5;;
69636;SDS011;56860;51.144;16.954;2023-11-19T05:30:59;13.9;;;23.5;;
69636;SDS011;56860;51.144;16.954;2023-11-19T05:31:59;13.9;;;23.5;;
69636;SDS011;56860;51.144;16.954;2023-11-19T05:32:59;13.0;;;22.6;;
69636;SDS011;56860;51.144;16.954;2023-11-19T05:33:59;13.0;;;22.6;;
69636;SDS011;56860;51.144;16.954;2023-11-19T05:34:59;13.0;;;22.6;;
69636;SDS011;56860;51.144;16.954;2023-11-19T05:35:59;12.9;;;19.9;;
69636;SDS011;56860;51.144;16.954;2023-11-19T05:36:59;12.9;;;19.9;;
69636;SDS011;56860;51.144;16.954;2023-11-19T05:37:59;12.9;;;19.9;;
69636;SDS011;56860;51.144;16.954;2023-11-19T05:38:59;12.6;;;19.2;;
69636;SDS011;56860;51.144;16.954;2023-11-19T05:39:59;12.6;;;19.2;;
69636;SDS011;56860;51.144;16.954;2023-11-19T05:40:59;12.6;;;19.2;;
69636;SDS011;56860;51.144;16.954;2023-11-19T05:41:59;12.2;;;17.9;;
69636;SDS011;56860;51.144;16.954;2023-11-19T05:42:59;12.2;;;17.9;;
69636;SDS011;56860;51.144;16.954;2023-11-19T05:43:59;12.2;;;17.9;;
69636;SDS011;56860;51.144;16.954;2023-11-19T05:45:01;13.0;;;19.6;;
69636;SDS011;56860;51.144;16.954;2023-11-19T05:45:59;13.0;;;19.6;;
69636;SDS011;56860;51.144;16.954;2023-11-19T05:46:59;13.0;;;19.6;;
69636;SDS011;56860;51.144;16.954;2023-11-19T05:47:59;12.8;;;21.0;;
69636;SDS011;56860;51.144;16.954;2023-11-19T05:48:59;12.8;;;21.0;;
69636;SDS011;56860;51.144;16.954;2023-11-19T05:49:59;12.8;;;21.0;;
69636;SDS011;56860;51.144;16.954;2023-11-19T05:50:59;13.3;;;21.7;;
69636;SDS011;56860;51.144;16.954;2023-11-19T05:51:59;13.3;;;21.7;;
69636;SDS011;56860;51.144;16.954;2023-11-19T05:52:59;13.3;;;21.7;;
69636;SDS011;56860;51.144;16.954;2023-11-19T05:53:59;12.4;;;18.4;;
69636;SDS011;56860;51.144;16.954;2023-11-19T05:54:59;12.4;;;18.4;;
69636;SDS011;56860;51.144;16.954;2023-11-19T05:55:59;12.4;;;18.4;;
69636;SDS011;56860;51.144;16.954;2023-11-19T05:56:59;13.3;;;19.4;;
69636;SDS011;56860;51.144;16.954;2023-11-19T05:57:59;13.3;;;19.4;;